RFF001 ULPB-ULPB
Flight info
| Callsign | RFF001 |
|---|---|
| Flight time | N/A |
| Altitude | 20000 |
| Route | ULPB ULPB |
| Aircraft | SU27/M-V/N |
Departure
| Time | 2026-04-20 14:20 |
|---|---|
| Airport | Petrozavodsk Airport (ULPB) |
Arrival
| Time | N/A |
|---|---|
| Airport | Petrozavodsk Airport (ULPB) |
| Time | Latitude | Longitude | Altitude | Speed | Heading |
|---|---|---|---|---|---|
| 2026-04-20 14:19 | 61.87946 | 34.15382 | 151 ft | 1 kts | 113° |
| 2026-04-20 14:19 | 61.87904 | 34.15435 | 152 ft | 14 kts | 199° |
| 2026-04-20 14:20 | 61.87862 | 34.15229 | 152 ft | 24 kts | 294° |
| 2026-04-20 14:20 | 61.87941 | 34.14958 | 152 ft | 17 kts | 5° |
| 2026-04-20 14:20 | 61.88234 | 34.15217 | 149 ft | 145 kts | 23° |
| 2026-04-20 14:20 | 61.89929 | 34.16717 | 1314 ft | 352 kts | 22° |
| 2026-04-20 14:21 | 61.92736 | 34.18095 | 5677 ft | 521 kts | 356° |
| 2026-04-20 14:21 | 61.96915 | 34.16541 | 8116 ft | 683 kts | 351° |
| 2026-04-20 14:21 | 62.01857 | 34.14582 | 10037 ft | 755 kts | 351° |
| 2026-04-20 14:21 | 62.07156 | 34.12157 | 11805 ft | 800 kts | 348° |
| 2026-04-20 14:22 | 62.12598 | 34.08637 | 13615 ft | 835 kts | 340° |
| 2026-04-20 14:22 | 62.17852 | 34.02951 | 15454 ft | 861 kts | 331° |
| 2026-04-20 14:22 | 62.22867 | 33.95493 | 17294 ft | 894 kts | 324° |
| 2026-04-20 14:22 | 62.27756 | 33.86814 | 19174 ft | 933 kts | 322° |
| 2026-04-20 14:23 | 62.32773 | 33.77436 | 20942 ft | 978 kts | 321° |
| 2026-04-20 14:23 | 62.37998 | 33.67514 | 20698 ft | 1022 kts | 321° |
| 2026-04-20 14:23 | 62.43370 | 33.57334 | 20741 ft | 1036 kts | 321° |
| 2026-04-20 14:23 | 62.48531 | 33.46336 | 20671 ft | 1047 kts | 313° |
| 2026-04-20 14:24 | 62.53289 | 33.34384 | 21035 ft | 1048 kts | 313° |
| 2026-04-20 14:24 | 62.58042 | 33.22433 | 21529 ft | 1046 kts | 313° |
| 2026-04-20 14:24 | 62.62795 | 33.10460 | 21946 ft | 1046 kts | 313° |
| 2026-04-20 14:24 | 62.67550 | 32.98462 | 22305 ft | 1049 kts | 313° |
| 2026-04-20 14:25 | 62.72330 | 32.86393 | 22643 ft | 1054 kts | 313° |
| 2026-04-20 14:25 | 62.77179 | 32.74342 | 22962 ft | 1058 kts | 315° |
| 2026-04-20 14:25 | 62.82350 | 32.62910 | 23276 ft | 1060 kts | 319° |
| 2026-04-20 14:25 | 62.87667 | 32.51987 | 23276 ft | 1068 kts | 319° |
| 2026-04-20 14:26 | 62.93094 | 32.40732 | 22388 ft | 1079 kts | 316° |
| 2026-04-20 14:26 | 62.98170 | 32.28878 | 20726 ft | 1017 kts | 315° |
| 2026-04-20 14:26 | 63.02536 | 32.18192 | 20789 ft | 869 kts | 311° |
| 2026-04-20 14:26 | 63.05922 | 32.08305 | 20803 ft | 743 kts | 308° |